createdAt,value
2022-08-28T00:00:12.392Z,21.96
2022-08-28T00:00:25.726Z,21.96
2022-08-28T00:00:39.671Z,21.94
2022-08-28T00:00:51.629Z,21.93
2022-08-28T00:01:04.223Z,21.92
2022-08-28T00:01:16.405Z,21.92
2022-08-28T00:01:28.352Z,21.92
2022-08-28T00:01:40.355Z,21.93
2022-08-28T00:01:52.315Z,21.91
2022-08-28T00:02:04.564Z,21.94
2022-08-28T00:02:16.858Z,21.94
2022-08-28T00:02:28.866Z,21.94
2022-08-28T00:02:41.295Z,21.93
2022-08-28T00:02:53.991Z,21.94
2022-08-28T00:03:06.882Z,21.96
2022-08-28T00:03:19.611Z,21.97
2022-08-28T00:03:32.389Z,21.97
2022-08-28T00:03:44.591Z,21.96
2022-08-28T00:03:57.872Z,21.96
2022-08-28T00:04:09.789Z,21.93
2022-08-28T00:04:21.892Z,21.94
2022-08-28T00:04:34.446Z,21.92
2022-08-28T00:04:46.619Z,21.92
2022-08-28T00:04:58.768Z,21.91
2022-08-28T00:05:11.610Z,21.90
2022-08-28T00:05:26.096Z,21.91
2022-08-28T00:05:41.650Z,21.91
2022-08-28T00:05:53.739Z,21.92
2022-08-28T00:06:06.013Z,21.91
2022-08-28T00:06:18.791Z,21.90
2022-08-28T00:06:30.817Z,21.89
2022-08-28T00:06:42.747Z,21.88
2022-08-28T00:06:54.748Z,21.88
2022-08-28T00:07:06.672Z,21.88
2022-08-28T00:07:19.334Z,21.88
2022-08-28T00:07:31.436Z,21.86
2022-08-28T00:07:47.685Z,21.86
2022-08-28T00:08:00.876Z,21.85
2022-08-28T00:08:15.268Z,21.86
2022-08-28T00:08:27.376Z,21.86
2022-08-28T00:08:39.355Z,21.87
2022-08-28T00:08:51.459Z,21.87
2022-08-28T00:09:04.444Z,21.88
2022-08-28T00:09:16.423Z,21.88
2022-08-28T00:09:28.369Z,21.88
2022-08-28T00:09:40.476Z,21.89
2022-08-28T00:09:52.435Z,21.88
2022-08-28T00:10:05.860Z,21.87
2022-08-28T00:10:20.639Z,21.87
2022-08-28T00:10:34.728Z,21.87
2022-08-28T00:10:47.247Z,21.84
2022-08-28T00:10:59.820Z,21.83
2022-08-28T00:11:11.999Z,21.83
2022-08-28T00:11:24.062Z,21.81
2022-08-28T00:11:38.602Z,21.79
2022-08-28T00:11:50.577Z,21.77
2022-08-28T00:12:02.922Z,21.76
2022-08-28T00:12:14.875Z,21.76
2022-08-28T00:12:27.141Z,21.74
2022-08-28T00:12:39.800Z,21.73
2022-08-28T00:12:55.679Z,21.71
2022-08-28T00:13:13.743Z,21.69
2022-08-28T00:13:26.886Z,21.68
2022-08-28T00:13:39.024Z,21.67
2022-08-28T00:13:51.586Z,21.65
2022-08-28T00:14:07.932Z,21.63
2022-08-28T00:14:21.086Z,21.62
2022-08-28T00:14:33.075Z,21.58
2022-08-28T00:14:45.030Z,21.57
2022-08-28T00:14:57.376Z,21.56
2022-08-28T00:15:15.148Z,21.52
2022-08-28T00:15:38.851Z,21.51
2022-08-28T00:15:54.549Z,21.51
2022-08-28T00:16:07.061Z,21.45
2022-08-28T00:16:19.143Z,21.45
2022-08-28T00:16:31.456Z,21.44
2022-08-28T00:16:43.429Z,21.42
2022-08-28T00:16:55.442Z,21.41
2022-08-28T00:17:07.441Z,21.40
2022-08-28T00:17:19.393Z,21.40
2022-08-28T00:17:31.306Z,21.39
2022-08-28T00:17:43.518Z,21.40
2022-08-28T00:17:55.894Z,21.39
2022-08-28T00:18:08.630Z,21.39
2022-08-28T00:18:21.251Z,21.41
2022-08-28T00:18:34.238Z,21.40
2022-08-28T00:18:47.119Z,21.42
2022-08-28T00:18:59.619Z,21.40
2022-08-28T00:19:11.779Z,21.41
2022-08-28T00:19:24.319Z,21.42
2022-08-28T00:19:38.656Z,21.42
2022-08-28T00:19:51.195Z,21.43
2022-08-28T00:20:05.244Z,21.44
2022-08-28T00:20:20.638Z,21.43
2022-08-28T00:20:34.022Z,21.43
2022-08-28T00:20:47.263Z,21.43
2022-08-28T00:20:59.933Z,21.43
2022-08-28T00:21:12.653Z,21.43
2022-08-28T00:21:25.193Z,21.43
2022-08-28T00:21:37.494Z,21.44
2022-08-28T00:21:50.435Z,21.45
2022-08-28T00:22:04.144Z,21.44
2022-08-28T00:22:16.452Z,21.45
2022-08-28T00:22:28.411Z,21.45
2022-08-28T00:22:41.501Z,21.47
2022-08-28T00:22:55.459Z,21.52
2022-08-28T00:23:07.629Z,21.55
2022-08-28T00:23:20.060Z,21.59
2022-08-28T00:23:42.417Z,21.59
2022-08-28T00:23:55.712Z,21.53
2022-08-28T00:24:11.141Z,21.50
2022-08-28T00:24:23.229Z,21.51
2022-08-28T00:24:36.093Z,21.51
2022-08-28T00:24:48.133Z,21.50
2022-08-28T00:25:00.109Z,21.50
2022-08-28T00:25:13.335Z,21.50
2022-08-28T00:25:27.741Z,21.50
2022-08-28T00:25:39.697Z,21.49
2022-08-28T00:25:52.556Z,21.50
2022-08-28T00:26:04.515Z,21.49
2022-08-28T00:26:36.815Z,21.50
2022-08-28T00:27:07.202Z,21.48
2022-08-28T00:27:37.536Z,21.48
2022-08-28T00:27:54.934Z,21.49
2022-08-28T00:28:10.997Z,21.50
2022-08-28T00:28:36.031Z,21.49
2022-08-28T00:28:47.967Z,21.49
2022-08-28T00:28:59.971Z,21.50
2022-08-28T00:29:12.019Z,21.50
2022-08-28T00:29:24.295Z,21.50
2022-08-28T00:29:36.342Z,21.47
2022-08-28T00:29:48.316Z,21.46
2022-08-28T00:30:00.254Z,21.46
2022-08-28T00:30:12.681Z,21.45
2022-08-28T00:30:29.792Z,21.45
2022-08-28T00:30:48.328Z,21.42
2022-08-28T00:31:01.798Z,21.39
2022-08-28T00:31:13.886Z,21.37
2022-08-28T00:31:25.940Z,21.39
2022-08-28T00:31:41.202Z,21.38
2022-08-28T00:31:53.258Z,21.40
2022-08-28T00:32:05.758Z,21.40
2022-08-28T00:32:17.878Z,21.39
2022-08-28T00:32:29.874Z,21.34
2022-08-28T00:32:41.856Z,21.35
2022-08-28T00:32:57.052Z,21.31
2022-08-28T00:33:18.331Z,21.31
2022-08-28T00:33:33.226Z,21.31
2022-08-28T00:33:47.520Z,21.32
2022-08-28T00:34:02.598Z,21.32
2022-08-28T00:34:14.698Z,21.30
2022-08-28T00:34:33.006Z,21.26
2022-08-28T00:34:45.208Z,21.26
2022-08-28T00:34:57.803Z,21.26
2022-08-28T00:35:09.804Z,21.26
2022-08-28T00:35:23.271Z,21.27
2022-08-28T00:35:35.289Z,21.28
2022-08-28T00:35:48.069Z,21.29
2022-08-28T00:36:01.555Z,21.30
2022-08-28T00:36:13.491Z,21.32
2022-08-28T00:36:25.466Z,21.40
2022-08-28T00:36:38.668Z,21.43
2022-08-28T00:36:50.688Z,21.43
2022-08-28T00:37:03.577Z,21.43
2022-08-28T00:37:16.097Z,21.44
2022-08-28T00:37:28.351Z,21.44
2022-08-28T00:37:40.323Z,21.45
2022-08-28T00:37:54.847Z,21.48
2022-08-28T00:38:09.180Z,21.47
2022-08-28T00:38:23.417Z,21.45
2022-08-28T00:38:37.646Z,21.45
2022-08-28T00:38:50.467Z,21.48
2022-08-28T00:39:04.221Z,21.49
2022-08-28T00:39:16.470Z,21.49
2022-08-28T00:39:32.147Z,21.47
2022-08-28T00:39:44.620Z,21.48
2022-08-28T00:39:56.802Z,21.50
2022-08-28T00:40:10.149Z,21.47
2022-08-28T00:40:28.755Z,21.48
2022-08-28T00:40:45.768Z,21.48
2022-08-28T00:41:01.760Z,21.48
2022-08-28T00:41:16.602Z,21.50
2022-08-28T00:41:38.991Z,21.52
2022-08-28T00:41:56.637Z,21.50
2022-08-28T00:42:10.265Z,21.51
2022-08-28T00:42:22.206Z,21.51
2022-08-28T00:42:35.123Z,21.50
2022-08-28T00:42:48.105Z,21.49
2022-08-28T00:43:05.100Z,21.49
2022-08-28T00:43:38.416Z,21.45
2022-08-28T00:43:50.467Z,21.43
2022-08-28T00:44:10.167Z,21.43
2022-08-28T00:44:24.275Z,21.39
2022-08-28T00:44:36.755Z,21.41
2022-08-28T00:44:48.752Z,21.41
2022-08-28T00:45:01.063Z,21.38
2022-08-28T00:45:15.183Z,21.39
2022-08-28T00:45:28.123Z,21.38
2022-08-28T00:45:40.424Z,21.40
2022-08-28T00:45:53.290Z,21.41
2022-08-28T00:46:10.507Z,21.41
2022-08-28T00:46:24.070Z,21.41
2022-08-28T00:46:38.367Z,21.40
2022-08-28T00:46:52.244Z,21.41
2022-08-28T00:47:04.275Z,21.40
2022-08-28T00:47:16.233Z,21.39
2022-08-28T00:47:28.294Z,21.38
2022-08-28T00:47:40.981Z,21.37
2022-08-28T00:47:53.155Z,21.36
2022-08-28T00:48:05.384Z,21.36
2022-08-28T00:48:17.437Z,21.34
2022-08-28T00:48:29.606Z,21.35
2022-08-28T00:48:41.760Z,21.33
2022-08-28T00:48:53.767Z,21.33
2022-08-28T00:49:06.679Z,21.32
2022-08-28T00:49:23.752Z,21.29
2022-08-28T00:49:41.090Z,21.28
2022-08-28T00:49:54.934Z,21.27
2022-08-28T00:50:10.455Z,21.25
2022-08-28T00:50:26.995Z,21.23
2022-08-28T00:51:00.579Z,21.22
2022-08-28T00:51:34.336Z,21.20
2022-08-28T00:52:08.058Z,21.18
2022-08-28T00:52:24.138Z,21.15
2022-08-28T00:52:37.030Z,21.14
2022-08-28T00:52:53.139Z,21.14
2022-08-28T00:53:05.099Z,21.13
2022-08-28T00:53:17.180Z,21.11
2022-08-28T00:53:32.874Z,21.12
2022-08-28T00:53:45.268Z,21.11
2022-08-28T00:53:59.326Z,21.11
2022-08-28T00:54:11.999Z,21.10
2022-08-28T00:54:25.486Z,21.10
2022-08-28T00:55:02.981Z,21.08
2022-08-28T00:55:22.380Z,21.07
2022-08-28T00:55:34.916Z,21.06
2022-08-28T00:55:47.242Z,21.07
2022-08-28T00:55:59.243Z,21.06
2022-08-28T00:56:13.662Z,21.05
2022-08-28T00:56:26.297Z,21.05
2022-08-28T00:56:40.603Z,21.05
2022-08-28T00:56:54.907Z,21.03
2022-08-28T00:57:11.042Z,21.03
2022-08-28T00:57:28.621Z,21.02
2022-08-28T00:57:44.836Z,21.02
2022-08-28T00:58:02.383Z,21.02
2022-08-28T00:58:14.706Z,21.01
2022-08-28T00:58:26.818Z,21.01
2022-08-28T00:58:40.092Z,21.01
2022-08-28T00:58:54.553Z,21.00
2022-08-28T00:59:15.465Z,20.98
2022-08-28T00:59:27.738Z,20.99
2022-08-28T00:59:39.723Z,20.98
2022-08-28T00:59:52.043Z,20.98
2022-08-28T01:00:08.741Z,20.97
2022-08-28T01:00:33.937Z,20.96
2022-08-28T01:00:46.126Z,20.95
2022-08-28T01:00:59.138Z,20.94
2022-08-28T01:01:14.566Z,20.92
2022-08-28T01:01:26.686Z,20.92
2022-08-28T01:01:39.190Z,20.92
2022-08-28T01:01:55.926Z,20.90
2022-08-28T01:02:08.467Z,20.87
2022-08-28T01:02:21.287Z,20.86
2022-08-28T01:02:33.449Z,20.85
2022-08-28T01:02:46.138Z,20.86
2022-08-28T01:02:58.867Z,20.85
2022-08-28T01:03:11.243Z,20.86
2022-08-28T01:03:25.137Z,20.88
2022-08-28T01:03:38.522Z,20.88
2022-08-28T01:03:50.636Z,20.90
2022-08-28T01:04:06.092Z,20.90
2022-08-28T01:04:20.208Z,20.90
2022-08-28T01:04:33.547Z,20.91
2022-08-28T01:04:49.615Z,20.91
2022-08-28T01:05:01.830Z,20.91
2022-08-28T01:05:15.645Z,20.91
2022-08-28T01:05:28.892Z,20.90
2022-08-28T01:05:43.522Z,20.89
2022-08-28T01:05:55.802Z,20.89
2022-08-28T01:06:10.135Z,20.88
2022-08-28T01:06:22.127Z,20.88
2022-08-28T01:06:36.201Z,20.89
2022-08-28T01:06:53.456Z,20.90
2022-08-28T01:07:12.778Z,20.89
2022-08-28T01:07:24.896Z,20.90
2022-08-28T01:07:38.202Z,20.90
2022-08-28T01:07:50.918Z,20.90
2022-08-28T01:08:04.367Z,20.90
2022-08-28T01:08:18.609Z,20.90
2022-08-28T01:08:31.262Z,20.90
2022-08-28T01:08:46.163Z,20.90
2022-08-28T01:09:04.431Z,20.90
2022-08-28T01:09:20.922Z,20.90
2022-08-28T01:09:34.606Z,20.89
2022-08-28T01:09:50.972Z,20.90
2022-08-28T01:10:05.531Z,20.91
2022-08-28T01:10:22.114Z,20.91
2022-08-28T01:10:34.886Z,20.90
2022-08-28T01:10:50.338Z,20.90
2022-08-28T01:11:06.123Z,20.89
2022-08-28T01:11:19.851Z,20.90
2022-08-28T01:11:33.114Z,20.89
2022-08-28T01:11:47.415Z,20.90
2022-08-28T01:12:08.473Z,20.90
2022-08-28T01:12:27.139Z,20.90
2022-08-28T01:12:39.209Z,20.89
2022-08-28T01:12:56.175Z,20.89
2022-08-28T01:13:08.429Z,20.89
2022-08-28T01:13:20.872Z,20.89
2022-08-28T01:13:33.298Z,20.87
2022-08-28T01:13:48.379Z,20.86
2022-08-28T01:14:02.892Z,20.86
2022-08-28T01:14:18.259Z,20.85
2022-08-28T01:14:33.766Z,20.81
2022-08-28T01:14:49.197Z,20.82
2022-08-28T01:15:11.792Z,20.82
2022-08-28T01:15:29.659Z,20.80
2022-08-28T01:15:42.922Z,20.80
2022-08-28T01:15:55.966Z,20.80
2022-08-28T01:16:08.924Z,20.79
2022-08-28T01:16:22.519Z,20.80
2022-08-28T01:16:37.564Z,20.81
2022-08-28T01:16:55.357Z,20.81
2022-08-28T01:17:09.692Z,20.80
2022-08-28T01:17:24.446Z,20.79
2022-08-28T01:17:36.907Z,20.78
2022-08-28T01:18:02.559Z,20.77
2022-08-28T01:18:17.816Z,20.75
2022-08-28T01:18:32.298Z,20.73
2022-08-28T01:18:46.109Z,20.72
2022-08-28T01:19:00.460Z,20.71
2022-08-28T01:19:31.411Z,20.64
2022-08-28T01:19:48.242Z,20.64
2022-08-28T01:20:09.392Z,20.63
2022-08-28T01:20:28.581Z,20.64
2022-08-28T01:20:48.476Z,20.66
2022-08-28T01:21:03.218Z,20.68
2022-08-28T01:21:30.768Z,20.68
2022-08-28T01:21:48.744Z,20.69
2022-08-28T01:22:12.876Z,20.71
2022-08-28T01:22:37.319Z,20.70
2022-08-28T01:23:09.763Z,20.69
2022-08-28T01:23:44.366Z,20.68
2022-08-28T01:24:14.689Z,20.68
2022-08-28T01:24:27.342Z,20.68
2022-08-28T01:24:40.413Z,20.69
2022-08-28T01:24:55.898Z,20.71
2022-08-28T01:25:13.109Z,20.70
2022-08-28T01:25:30.402Z,20.69
2022-08-28T01:25:42.844Z,20.67
2022-08-28T01:25:54.971Z,20.67
2022-08-28T01:26:10.722Z,20.67
2022-08-28T01:26:25.880Z,20.66
2022-08-28T01:26:38.536Z,20.67
2022-08-28T01:26:50.518Z,20.65
2022-08-28T01:27:02.502Z,20.65
2022-08-28T01:27:14.495Z,20.67
2022-08-28T01:27:26.897Z,20.65
2022-08-28T01:27:41.804Z,20.65
2022-08-28T01:27:53.852Z,20.65
2022-08-28T01:28:08.987Z,20.66
2022-08-28T01:28:21.106Z,20.68
2022-08-28T01:28:33.667Z,20.67
2022-08-28T01:28:46.139Z,20.69
2022-08-28T01:28:59.818Z,20.69
2022-08-28T01:29:12.374Z,20.69
2022-08-28T01:29:25.058Z,20.68
2022-08-28T01:29:37.227Z,20.71
2022-08-28T01:29:50.323Z,20.69
2022-08-28T01:30:03.503Z,20.69
2022-08-28T01:30:19.538Z,20.69
2022-08-28T01:30:32.363Z,20.70
2022-08-28T01:30:47.647Z,20.71
2022-08-28T01:30:59.755Z,20.71
2022-08-28T01:31:14.066Z,20.70
2022-08-28T01:31:28.964Z,20.69
2022-08-28T01:31:41.995Z,20.68
2022-08-28T01:31:54.286Z,20.68
2022-08-28T01:32:06.256Z,20.66
2022-08-28T01:32:41.797Z,20.66
2022-08-28T01:32:55.882Z,20.66
2022-08-28T01:33:08.715Z,20.64
2022-08-28T01:33:24.293Z,20.64
2022-08-28T01:33:42.346Z,20.65
2022-08-28T01:33:54.931Z,20.64
2022-08-28T01:34:08.900Z,20.64
2022-08-28T01:34:21.155Z,20.66
2022-08-28T01:34:34.256Z,20.69
2022-08-28T01:34:46.194Z,20.69
2022-08-28T01:34:59.138Z,20.70
2022-08-28T01:35:15.039Z,20.71
2022-08-28T01:35:31.582Z,20.71
2022-08-28T01:35:47.449Z,20.73
2022-08-28T01:35:59.417Z,20.73
2022-08-28T01:36:13.313Z,20.74
2022-08-28T01:36:25.891Z,20.75
2022-08-28T01:36:37.938Z,20.77
2022-08-28T01:36:49.902Z,20.77
2022-08-28T01:37:03.737Z,20.77
2022-08-28T01:37:15.783Z,20.77
2022-08-28T01:37:28.483Z,20.78
2022-08-28T01:37:41.447Z,20.77
2022-08-28T01:37:55.742Z,20.78
2022-08-28T01:38:08.044Z,20.79
2022-08-28T01:38:21.969Z,20.80
2022-08-28T01:38:41.319Z,20.82
2022-08-28T01:38:58.958Z,20.84
2022-08-28T01:39:19.903Z,20.85
2022-08-28T01:39:31.891Z,20.83
2022-08-28T01:39:43.839Z,20.84
2022-08-28T01:39:55.858Z,20.84
2022-08-28T01:40:10.091Z,20.83
2022-08-28T01:40:32.038Z,20.82
2022-08-28T01:40:48.097Z,20.83
2022-08-28T01:41:00.315Z,20.81
2022-08-28T01:41:13.960Z,20.82
2022-08-28T01:41:25.945Z,20.83
2022-08-28T01:41:42.327Z,20.84
2022-08-28T01:41:55.475Z,20.85
2022-08-28T01:42:07.449Z,20.85
2022-08-28T01:42:19.571Z,20.86
2022-08-28T01:42:37.168Z,20.88
2022-08-28T01:42:50.186Z,20.88
2022-08-28T01:43:20.557Z,20.91
2022-08-28T01:43:32.626Z,20.91
2022-08-28T01:43:45.147Z,20.93
2022-08-28T01:43:57.443Z,20.93
2022-08-28T01:44:09.734Z,20.91
2022-08-28T01:44:25.691Z,20.92
2022-08-28T01:44:38.004Z,20.94
2022-08-28T01:44:50.210Z,20.93
2022-08-28T01:45:02.140Z,20.93
2022-08-28T01:45:16.279Z,20.94
2022-08-28T01:45:28.359Z,20.94
2022-08-28T01:45:44.133Z,20.94
2022-08-28T01:46:01.823Z,20.90
2022-08-28T01:46:14.197Z,20.91
2022-08-28T01:46:26.199Z,20.92
2022-08-28T01:46:41.818Z,20.93
2022-08-28T01:46:56.370Z,20.92
2022-08-28T01:47:08.378Z,20.93
2022-08-28T01:47:21.575Z,20.94
2022-08-28T01:47:33.575Z,20.92
2022-08-28T01:47:47.339Z,20.93
2022-08-28T01:47:59.302Z,20.93
2022-08-28T01:48:13.126Z,20.94
2022-08-28T01:48:26.370Z,20.95
2022-08-28T01:48:42.980Z,20.96
2022-08-28T01:48:55.182Z,20.96
2022-08-28T01:49:11.919Z,20.96
2022-08-28T01:49:25.233Z,20.96
2022-08-28T01:49:37.379Z,20.98
2022-08-28T01:49:49.327Z,20.96
2022-08-28T01:50:01.319Z,20.89
2022-08-28T01:50:17.142Z,20.86
2022-08-28T01:50:29.255Z,20.85
2022-08-28T01:50:42.503Z,20.83
2022-08-28T01:50:55.325Z,20.83
2022-08-28T01:51:08.268Z,20.85
2022-08-28T01:51:24.352Z,20.85
2022-08-28T01:51:38.263Z,20.85
2022-08-28T01:51:50.627Z,20.85
2022-08-28T01:52:04.731Z,20.87
2022-08-28T01:52:16.675Z,20.87
2022-08-28T01:52:28.909Z,20.87
2022-08-28T01:52:41.623Z,20.87
2022-08-28T01:52:55.035Z,20.87
2022-08-28T01:53:11.948Z,20.87
2022-08-28T01:53:32.138Z,20.87
2022-08-28T01:53:46.545Z,20.87
2022-08-28T01:53:58.715Z,20.87
2022-08-28T01:54:12.015Z,20.87
2022-08-28T01:54:25.762Z,20.86
2022-08-28T01:54:38.048Z,20.85
2022-08-28T01:54:51.027Z,20.85
2022-08-28T01:55:06.551Z,20.85
2022-08-28T01:55:21.451Z,20.84
2022-08-28T01:55:35.990Z,20.85
2022-08-28T01:55:50.047Z,20.84
2022-08-28T01:56:05.167Z,20.84
2022-08-28T01:56:17.668Z,20.84
2022-08-28T01:56:29.853Z,20.83
2022-08-28T01:56:44.214Z,20.83
2022-08-28T01:56:56.276Z,20.83
2022-08-28T01:57:08.236Z,20.84
2022-08-28T01:57:20.190Z,20.83
2022-08-28T01:57:35.954Z,20.80
2022-08-28T01:57:52.944Z,20.80
2022-08-28T01:58:06.787Z,20.80
2022-08-28T01:58:19.170Z,20.79
2022-08-28T01:58:36.041Z,20.78
2022-08-28T01:58:50.050Z,20.75
2022-08-28T01:59:05.369Z,20.77
2022-08-28T01:59:17.581Z,20.77
2022-08-28T01:59:29.770Z,20.73
2022-08-28T01:59:41.843Z,20.72
2022-08-28T01:59:54.773Z,20.72
2022-08-28T02:00:07.481Z,20.72
2022-08-28T02:00:20.062Z,20.70
2022-08-28T02:00:32.108Z,20.71
2022-08-28T02:00:44.365Z,20.69
2022-08-28T02:00:57.366Z,20.75
2022-08-28T02:01:15.243Z,20.78
2022-08-28T02:01:27.275Z,20.79
2022-08-28T02:01:40.202Z,20.79
2022-08-28T02:01:55.222Z,20.79
2022-08-28T02:02:07.479Z,20.77
2022-08-28T02:02:19.568Z,20.79
2022-08-28T02:02:31.714Z,20.78
2022-08-28T02:02:43.747Z,20.80
2022-08-28T02:02:57.810Z,20.79
2022-08-28T02:03:10.146Z,20.80
2022-08-28T02:03:23.553Z,20.80
2022-08-28T02:03:35.535Z,20.80
2022-08-28T02:03:49.131Z,20.79
2022-08-28T02:04:01.210Z,20.80
2022-08-28T02:04:14.249Z,20.79
2022-08-28T02:04:32.255Z,20.79
2022-08-28T02:04:48.012Z,20.79
2022-08-28T02:05:00.196Z,20.81
2022-08-28T02:05:12.226Z,20.82
2022-08-28T02:05:27.303Z,20.84
2022-08-28T02:05:39.952Z,20.85
2022-08-28T02:05:52.001Z,20.86
2022-08-28T02:06:04.703Z,20.84
2022-08-28T02:06:17.727Z,20.87
2022-08-28T02:06:30.427Z,20.88
2022-08-28T02:06:42.411Z,20.88
2022-08-28T02:06:54.338Z,20.88
2022-08-28T02:07:06.247Z,20.89
2022-08-28T02:07:18.321Z,20.89
2022-08-28T02:07:30.254Z,20.89
2022-08-28T02:07:42.176Z,20.88
2022-08-28T02:07:54.115Z,20.88
2022-08-28T02:08:07.667Z,20.88
2022-08-28T02:08:20.425Z,20.88
2022-08-28T02:08:32.588Z,20.89
2022-08-28T02:08:45.865Z,20.89
2022-08-28T02:08:59.406Z,20.89
2022-08-28T02:09:14.723Z,20.90
2022-08-28T02:09:26.908Z,20.93
2022-08-28T02:09:38.867Z,20.94
2022-08-28T02:09:51.635Z,20.93
2022-08-28T02:10:05.710Z,20.93
2022-08-28T02:10:18.571Z,20.94
2022-08-28T02:10:33.185Z,20.94
2022-08-28T02:10:45.315Z,20.95
2022-08-28T02:10:57.275Z,20.95
2022-08-28T02:11:10.271Z,20.98
2022-08-28T02:11:24.143Z,20.97
2022-08-28T02:11:36.082Z,20.96
2022-08-28T02:11:47.995Z,20.96
2022-08-28T02:11:59.951Z,20.97
2022-08-28T02:12:11.971Z,20.98
2022-08-28T02:12:25.019Z,20.98
2022-08-28T02:12:36.954Z,20.98
2022-08-28T02:12:49.302Z,20.98
2022-08-28T02:13:02.292Z,20.98
2022-08-28T02:13:14.537Z,20.99
2022-08-28T02:13:26.896Z,20.99
2022-08-28T02:13:40.504Z,20.99
2022-08-28T02:13:54.302Z,21.00
2022-08-28T02:14:08.255Z,21.01
2022-08-28T02:14:20.605Z,21.02
2022-08-28T02:14:32.728Z,21.01
2022-08-28T02:14:44.660Z,21.01
2022-08-28T02:14:56.627Z,21.00
2022-08-28T02:15:08.986Z,21.00
2022-08-28T02:15:23.637Z,21.00
2022-08-28T02:15:37.070Z,20.99
2022-08-28T02:15:49.070Z,20.98
2022-08-28T02:16:01.287Z,20.98
2022-08-28T02:16:13.421Z,20.98
2022-08-28T02:16:25.963Z,20.97
2022-08-28T02:16:37.991Z,20.98
2022-08-28T02:16:50.124Z,21.00
2022-08-28T02:17:02.536Z,20.99
2022-08-28T02:17:14.624Z,21.00
2022-08-28T02:17:26.550Z,21.00
2022-08-28T02:17:38.851Z,20.98
2022-08-28T02:17:51.386Z,20.99
2022-08-28T02:18:04.651Z,20.98
2022-08-28T02:18:17.235Z,20.96
2022-08-28T02:18:29.228Z,20.97
2022-08-28T02:18:41.854Z,20.98
2022-08-28T02:18:53.803Z,20.98
2022-08-28T02:19:06.067Z,20.97
2022-08-28T02:19:18.042Z,20.99
2022-08-28T02:19:30.476Z,21.00
2022-08-28T02:19:42.495Z,21.00
2022-08-28T02:19:54.503Z,21.00
2022-08-28T02:20:07.443Z,21.01
2022-08-28T02:20:19.426Z,21.01
2022-08-28T02:20:33.399Z,21.01
2022-08-28T02:20:45.386Z,21.00
2022-08-28T02:20:57.328Z,21.01
2022-08-28T02:21:10.588Z,21.02
2022-08-28T02:21:22.695Z,21.03
2022-08-28T02:21:35.516Z,21.04
2022-08-28T02:21:47.439Z,21.05
2022-08-28T02:21:59.512Z,21.04
2022-08-28T02:22:13.359Z,21.04
2022-08-28T02:22:25.607Z,21.03
2022-08-28T02:22:37.655Z,21.02
2022-08-28T02:22:50.234Z,21.00
2022-08-28T02:23:02.275Z,21.02
2022-08-28T02:23:14.663Z,21.03
2022-08-28T02:23:27.234Z,21.03
2022-08-28T02:23:41.851Z,21.03
2022-08-28T02:23:53.780Z,21.05
2022-08-28T02:24:05.906Z,21.04
2022-08-28T02:24:18.344Z,21.06
2022-08-28T02:24:30.340Z,21.06
2022-08-28T02:24:42.289Z,21.05
2022-08-28T02:24:54.293Z,21.05
2022-08-28T02:25:08.091Z,21.06
2022-08-28T02:25:20.097Z,21.07
2022-08-28T02:25:32.210Z,21.07
2022-08-28T02:25:44.148Z,21.08
2022-08-28T02:25:56.095Z,21.08
2022-08-28T02:26:09.703Z,21.07
2022-08-28T02:26:21.870Z,21.09
2022-08-28T02:26:33.827Z,21.10
2022-08-28T02:26:46.838Z,21.11
2022-08-28T02:26:58.822Z,21.10
2022-08-28T02:27:10.805Z,21.11
2022-08-28T02:27:22.783Z,21.12
2022-08-28T02:27:36.577Z,21.11
2022-08-28T02:27:49.100Z,21.12
2022-08-28T02:28:01.209Z,21.11
2022-08-28T02:28:13.251Z,21.13
2022-08-28T02:28:25.373Z,21.12
2022-08-28T02:28:37.658Z,21.09
2022-08-28T02:28:49.923Z,21.10
2022-08-28T02:29:01.891Z,21.09
2022-08-28T02:29:13.880Z,21.09
2022-08-28T02:29:27.145Z,21.10
2022-08-28T02:29:39.248Z,21.11
2022-08-28T02:29:51.334Z,21.13
2022-08-28T02:30:04.803Z,21.11
2022-08-28T02:30:17.305Z,21.12
2022-08-28T02:30:29.538Z,21.07
2022-08-28T02:30:41.531Z,21.05
2022-08-28T02:30:53.678Z,21.02
2022-08-28T02:31:09.205Z,21.05
2022-08-28T02:31:21.309Z,21.03
2022-08-28T02:31:33.299Z,21.03
2022-08-28T02:31:45.240Z,21.02
2022-08-28T02:31:57.253Z,21.03
2022-08-28T02:32:09.198Z,21.04
2022-08-28T02:32:21.668Z,21.04
2022-08-28T02:32:33.747Z,21.04
2022-08-28T02:32:46.592Z,21.05
2022-08-28T02:32:58.576Z,21.06
2022-08-28T02:33:10.526Z,21.07
2022-08-28T02:33:22.515Z,21.06
2022-08-28T02:33:37.547Z,21.06
2022-08-28T02:33:49.703Z,21.08
2022-08-28T02:34:01.850Z,21.09
2022-08-28T02:34:13.809Z,21.10
2022-08-28T02:34:25.800Z,21.06
2022-08-28T02:34:37.942Z,20.99
2022-08-28T02:34:49.899Z,21.00
2022-08-28T02:35:01.946Z,21.01
2022-08-28T02:35:16.633Z,21.03
2022-08-28T02:35:28.582Z,21.03
2022-08-28T02:35:42.785Z,21.03
2022-08-28T02:35:55.154Z,21.02
2022-08-28T02:36:08.970Z,21.01
2022-08-28T02:36:20.909Z,21.02
2022-08-28T02:36:33.729Z,21.01
2022-08-28T02:36:45.647Z,21.02
2022-08-28T02:36:57.600Z,21.03
2022-08-28T02:37:13.139Z,21.02
2022-08-28T02:37:25.119Z,21.02
2022-08-28T02:37:37.220Z,21.05
2022-08-28T02:37:49.894Z,21.03
2022-08-28T02:38:02.682Z,21.01
2022-08-28T02:38:15.262Z,21.04
2022-08-28T02:38:27.312Z,21.01
2022-08-28T02:38:39.295Z,21.00
2022-08-28T02:38:57.429Z,21.00
2022-08-28T02:39:10.772Z,21.00
2022-08-28T02:39:22.706Z,21.00
2022-08-28T02:39:34.924Z,21.01
2022-08-28T02:39:47.511Z,21.01
2022-08-28T02:40:00.224Z,21.02
2022-08-28T02:40:16.350Z,21.04
2022-08-28T02:40:29.661Z,21.05
2022-08-28T02:40:41.966Z,21.04
2022-08-28T02:40:53.927Z,21.04
2022-08-28T02:41:06.999Z,21.04
2022-08-28T02:41:19.001Z,21.05
2022-08-28T02:41:31.257Z,21.06
2022-08-28T02:41:43.246Z,21.06
2022-08-28T02:41:55.573Z,21.08
2022-08-28T02:42:07.586Z,21.07
2022-08-28T02:42:19.537Z,21.08
2022-08-28T02:42:31.724Z,21.06
2022-08-28T02:42:44.507Z,21.05
2022-08-28T02:42:56.606Z,21.06
2022-08-28T02:43:08.733Z,21.04
2022-08-28T02:43:20.662Z,21.03
2022-08-28T02:43:32.974Z,21.02
2022-08-28T02:43:45.168Z,21.02
2022-08-28T02:43:57.170Z,21.01
2022-08-28T02:44:10.041Z,21.00
2022-08-28T02:44:22.055Z,20.99
2022-08-28T02:44:34.898Z,20.97
2022-08-28T02:44:46.861Z,20.98
2022-08-28T02:44:59.470Z,20.97
2022-08-28T02:45:12.990Z,20.95
2022-08-28T02:45:24.963Z,20.95
2022-08-28T02:45:37.100Z,20.92
2022-08-28T02:45:49.315Z,20.91
2022-08-28T02:46:01.603Z,20.92
2022-08-28T02:46:13.778Z,20.91
2022-08-28T02:46:26.545Z,20.90
2022-08-28T02:46:38.612Z,20.89
2022-08-28T02:46:51.760Z,20.88
2022-08-28T02:47:06.077Z,20.88
2022-08-28T02:47:18.648Z,20.89
2022-08-28T02:47:30.593Z,20.87
2022-08-28T02:47:44.947Z,20.87
2022-08-28T02:47:57.263Z,20.86
2022-08-28T02:48:15.621Z,20.85
2022-08-28T02:48:31.623Z,20.84
2022-08-28T02:48:43.702Z,20.83
2022-08-28T02:48:56.133Z,20.83
2022-08-28T02:49:08.140Z,20.82
2022-08-28T02:49:20.078Z,20.81
2022-08-28T02:49:36.259Z,20.80
2022-08-28T02:49:48.390Z,20.80
2022-08-28T02:50:00.339Z,20.81
2022-08-28T02:50:15.328Z,20.79
2022-08-28T02:50:29.780Z,20.78
2022-08-28T02:50:41.698Z,20.80
2022-08-28T02:50:58.627Z,20.78
2022-08-28T02:51:13.331Z,20.77
2022-08-28T02:51:25.511Z,20.78
2022-08-28T02:51:37.429Z,20.78
2022-08-28T02:51:50.339Z,20.77
2022-08-28T02:52:02.376Z,20.77
2022-08-28T02:52:14.337Z,20.75
2022-08-28T02:52:26.953Z,20.74
2022-08-28T02:52:40.386Z,20.74
2022-08-28T02:52:52.518Z,20.69
2022-08-28T02:53:04.491Z,20.73
2022-08-28T02:53:16.418Z,20.74
2022-08-28T02:53:29.300Z,20.74
2022-08-28T02:53:42.450Z,20.73
2022-08-28T02:53:54.497Z,20.75
2022-08-28T02:54:06.463Z,20.74
2022-08-28T02:54:18.618Z,20.75
2022-08-28T02:54:30.963Z,20.76
2022-08-28T02:54:42.946Z,20.77
2022-08-28T02:54:54.887Z,20.77
2022-08-28T02:55:08.634Z,20.76
2022-08-28T02:55:21.206Z,20.73
2022-08-28T02:55:34.292Z,20.71
2022-08-28T02:55:46.500Z,20.71
2022-08-28T02:55:59.980Z,20.70
2022-08-28T02:56:12.151Z,20.71
2022-08-28T02:56:24.566Z,20.71
2022-08-28T02:56:36.551Z,20.71
2022-08-28T02:56:48.514Z,20.70
2022-08-28T02:57:00.503Z,20.71
2022-08-28T02:57:12.449Z,20.71
2022-08-28T02:57:24.443Z,20.71
2022-08-28T02:57:36.459Z,20.72
2022-08-28T02:57:48.613Z,20.72
2022-08-28T02:58:00.870Z,20.73